Time;durP1;ratioP1;P1;durP2;ratioP2;P2;SDS_P1;SDS_P2;PMS_P1;PMS_P2;Temp;Humidity;BMP_temperature;BMP_pressure;BME280_temperature;BME280_humidity;BME280_pressure;Samples;Min_cycle;Max_cycle;Signal;HPM_P1;HPM_P2
2023/08/26 00:00:08;;;;;;;;;;;;;;;27.64;52.83;99415.47;342152;28;1289;-73
2023/08/26 00:00:18;;;;;;;;;;;;;;;27.61;53.30;99418.50;340904;28;1171;-73
2023/08/26 00:00:28;;;;;;;;;;;;;;;27.58;53.49;99413.44;341408;28;926;-73
2023/08/26 00:00:39;;;;;;;;;;;;;;;27.60;53.39;99414.13;342376;28;817;-73
2023/08/26 00:00:49;;;;;;;;;;;;;;;27.63;53.60;99415.63;342515;28;3314;-73
2023/08/26 00:00:59;;;;;;;;;;;;;;;27.65;53.06;99416.31;337851;28;4832;-73
2023/08/26 00:01:10;;;;;;;;;;;;;;;27.67;53.47;99420.50;337394;28;3131;-73
2023/08/26 00:01:20;;;;;;;;;;;;;;;27.70;53.09;99416.63;343065;28;1400;-74
2023/08/26 00:01:30;;;;;;;;;;;;;;;27.69;53.06;99417.63;343012;28;3289;-74
2023/08/26 00:01:40;;;;;;;;;;;;;;;27.69;53.33;99420.31;342112;28;1966;-73
2023/08/26 00:01:51;;;;;;;;;;;;;;;27.67;53.00;99417.81;340838;29;915;-73
2023/08/26 00:02:01;;;;;;;;;;;;;;;27.64;53.49;99415.47;341046;29;810;-73
2023/08/26 00:02:11;;;;;;;;;;;;;;;27.57;53.40;99419.00;340979;29;912;-73
2023/08/26 00:02:21;;;;;;;;;;;;;;;27.52;53.37;99416.84;340962;29;1000;-73
2023/08/26 00:02:32;;;;;;;;;;;;;;;27.53;53.65;99417.69;339540;29;1021;-73
2023/08/26 00:02:42;;;;;;;;;;;;;;;27.56;53.87;99420.00;337960;28;1634;-73
2023/08/26 00:02:52;;;;;;;;;;;;;;;27.59;53.63;99422.38;337471;29;1200;-73
2023/08/26 00:03:03;;;;;;;;;;;;;;;27.63;53.36;99418.31;332009;29;1874;-73
2023/08/26 00:03:13;;;;;;;;;;;;;;;27.65;53.33;99410.91;332539;29;1824;-73
2023/08/26 00:03:24;;;;;;;;;;;;;;;27.69;53.19;99418.47;330735;29;1732;-73
2023/08/26 00:03:34;;;;;;;;;;;;;;;27.72;53.40;99422.66;330537;29;2098;-73
2023/08/26 00:03:44;;;;;;;;;;;;;;;27.74;52.94;99420.59;330327;29;2098;-73
2023/08/26 00:03:54;;;;;;;;;;;;;;;27.74;53.14;99420.59;330481;29;1579;-73
2023/08/26 00:04:05;;;;;;;;;;;;;;;27.75;53.10;99422.28;331974;29;815;-73
2023/08/26 00:04:15;;;;;;;;;;;;;;;27.75;52.91;99417.72;332629;29;910;-73
2023/08/26 00:04:25;;;;;;;;;;;;;;;27.76;52.98;99421.25;331813;29;1093;-73
2023/08/26 00:04:36;;;;;;;;;;;;;;;27.74;52.81;99420.59;330679;29;1342;-73
2023/08/26 00:04:46;;;;;;;;;;;;;;;27.72;52.86;99419.97;330315;29;1829;-73
2023/08/26 00:04:56;;;;;;;;;;;;;;;27.70;53.37;99419.31;330709;29;2083;-73
2023/08/26 00:05:07;;;;;;;;;;;;;;;27.69;53.00;99423.00;330592;29;1697;-73
2023/08/26 00:05:17;;;;;;;;;;;;;;;27.70;53.21;99422.00;331188;29;2353;-73
2023/08/26 00:05:27;;;;;;;;;;;;;;;27.71;53.14;99418.28;329738;29;2295;-73
2023/08/26 00:05:37;;;;;;;;;;;;;;;27.72;53.40;99422.66;330575;29;1423;-73
2023/08/26 00:05:49;;;;;;;;;;;;;;;27.74;53.30;99420.59;333569;29;2531;-73
2023/08/26 00:05:59;;;;;;;;;;;;;;;27.77;53.04;99421.06;332692;29;2509;-73
2023/08/26 00:06:09;;;;;;;;;;;;;;;27.80;52.88;99425.25;332929;29;1729;-73
2023/08/26 00:06:20;;;;;;;;;;;;;;;27.81;52.76;99419.72;334540;29;1198;-73
2023/08/26 00:06:30;;;;;;;;;;;;;;;27.84;53.06;99423.91;332226;29;1411;-73
2023/08/26 00:06:40;;;;;;;;;;;;;;;27.86;53.13;99421.88;328844;29;1978;-73
2023/08/26 00:06:50;;;;;;;;;;;;;;;27.84;52.78;99421.22;329381;30;1218;-73
2023/08/26 00:07:01;;;;;;;;;;;;;;;27.84;52.76;99421.22;327441;30;2293;-73
2023/08/26 00:07:11;;;;;;;;;;;;;;;27.82;52.61;99423.22;325750;30;2926;-73
2023/08/26 00:07:21;;;;;;;;;;;;;;;27.80;52.98;99427.97;326990;30;1336;-73
2023/08/26 00:07:31;;;;;;;;;;;;;;;27.78;52.71;99417.38;326255;30;3063;-73
2023/08/26 00:07:42;;;;;;;;;;;;;;;27.76;52.97;99421.25;323028;30;3113;-73
2023/08/26 00:07:52;;;;;;;;;;;;;;;27.68;53.37;99419.47;319774;30;837;-73
2023/08/26 00:08:02;;;;;;;;;;;;;;;27.67;53.38;99423.19;319895;30;3492;-73
2023/08/26 00:08:12;;;;;;;;;;;;;;;27.66;53.37;99426.03;320709;30;3101;-73
2023/08/26 00:08:23;;;;;;;;;;;;;;;27.63;53.08;99419.16;317225;31;1792;-73
2023/08/26 00:08:33;;;;;;;;;;;;;;;27.65;53.04;99419.81;320322;30;2401;-73
2023/08/26 00:08:43;;;;;;;;;;;;;;;27.67;53.37;99419.66;319953;30;2097;-72
2023/08/26 00:08:54;;;;;;;;;;;;;;;27.67;52.94;99425.03;317415;31;1203;-72
2023/08/26 00:09:04;;;;;;;;;;;;;;;27.69;53.02;99420.31;318032;31;2617;-72
2023/08/26 00:09:14;;;;;;;;;;;;;;;27.70;53.22;99420.13;314590;31;3165;-72
2023/08/26 00:09:24;;;;;;;;;;;;;;;27.72;53.11;99423.50;312769;31;2704;-72
2023/08/26 00:09:34;;;;;;;;;;;;;;;27.73;53.14;99424.28;311990;31;871;-72
2023/08/26 00:09:45;;;;;;;;;;;;;;;27.70;52.94;99424.69;311704;31;4101;-72
2023/08/26 00:09:55;;;;;;;;;;;;;;;27.69;53.31;99423.00;312292;31;4227;-72
2023/08/26 00:10:05;;;;;;;;;;;;;;;27.69;53.06;99423.00;312045;31;3537;-72
2023/08/26 00:10:16;;;;;;;;;;;;;;;27.65;52.85;99417.13;311927;31;5641;-72
2023/08/26 00:10:26;;;;;;;;;;;;;;;27.66;53.54;99423.34;311190;31;5897;-72
2023/08/26 00:10:36;;;;;;;;;;;;;;;27.65;53.10;99422.53;308665;31;3071;-72
2023/08/26 00:10:46;;;;;;;;;;;;;;;27.65;52.99;99419.81;309466;31;3191;-72
2023/08/26 00:10:58;;;;;;;;;;;;;;;27.63;53.66;99419.16;310360;31;3071;-72
2023/08/26 00:11:08;;;;;;;;;;;;;;;27.63;53.40;99418.31;311821;31;5298;-72
2023/08/26 00:11:18;;;;;;;;;;;;;;;27.63;53.52;99421.03;304033;31;5300;-72
2023/08/26 00:11:28;;;;;;;;;;;;;;;27.60;53.81;99422.22;305505;31;5252;-72
2023/08/26 00:11:40;;;;;;;;;;;;;;;27.57;53.71;99422.53;306381;32;1862;-72
2023/08/26 00:11:50;;;;;;;;;;;;;;;27.53;53.58;99412.28;302677;32;1509;-73
2023/08/26 00:12:01;;;;;;;;;;;;;;;27.52;53.67;99421.38;303612;32;5498;-73
2023/08/26 00:12:11;;;;;;;;;;;;;;;27.49;53.73;99417.19;302576;32;5857;-73
2023/08/26 00:12:21;;;;;;;;;;;;;;;27.50;53.52;99417.00;302268;32;877;-73
2023/08/26 00:12:31;;;;;;;;;;;;;;;27.50;53.76;99422.38;294234;33;6208;-72
2023/08/26 00:12:41;;;;;;;;;;;;;;;27.48;53.97;99419.03;292291;33;6179;-72
2023/08/26 00:12:52;;;;;;;;;;;;;;;27.47;53.91;99420.06;296104;33;961;-72
2023/08/26 00:13:02;;;;;;;;;;;;;;;27.48;53.64;99421.72;294664;33;4555;-72
2023/08/26 00:13:12;;;;;;;;;;;;;;;27.49;53.83;99423.41;292647;33;4801;-72
2023/08/26 00:13:23;;;;;;;;;;;;;;;27.50;54.04;99419.69;294227;33;870;-72
2023/08/26 00:13:33;;;;;;;;;;;;;;;27.50;54.01;99414.31;289656;33;6171;-72
2023/08/26 00:13:43;;;;;;;;;;;;;;;27.52;53.93;99421.38;290590;33;8086;-72
2023/08/26 00:13:53;;;;;;;;;;;;;;;27.54;54.21;99424.72;293151;33;1168;-72
2023/08/26 00:14:04;;;;;;;;;;;;;;;27.56;54.03;99418.16;290081;33;8185;-72
2023/08/26 00:14:14;;;;;;;;;;;;;;;27.57;53.54;99413.63;289057;34;10099;-72
2023/08/26 00:14:24;;;;;;;;;;;;;;;27.58;53.57;99415.28;287478;34;1226;-72
2023/08/26 00:14:34;;;;;;;;;;;;;;;27.58;53.61;99416.13;284638;34;1524;-72
2023/08/26 00:14:46;;;;;;;;;;;;;;;27.60;53.80;99424.06;283077;34;9050;-72
2023/08/26 00:14:56;;;;;;;;;;;;;;;27.59;53.94;99417.00;280118;35;8449;-72
2023/08/26 00:15:07;;;;;;;;;;;;;;;27.57;53.87;99419.00;278326;35;1384;-72
2023/08/26 00:17:32;;;;;;;;;;;;;;;27.46;54.17;99418.38;2495673;27;19937;-72
2023/08/26 00:17:42;;;;;;;;;;;;;;;27.47;54.28;99420.06;353034;28;1344;-72
2023/08/26 00:17:52;;;;;;;;;;;;;;;27.49;54.31;99418.03;350296;28;1322;-72
2023/08/26 00:18:04;;;;;;;;;;;;;;;27.52;54.10;99413.31;349165;28;899;-72
2023/08/26 00:18:14;;;;;;;;;;;;;;;27.52;54.21;99416.84;349151;28;782;-72
2023/08/26 00:18:24;;;;;;;;;;;;;;;27.54;54.31;99416.66;350456;28;1263;-73
2023/08/26 00:18:34;;;;;;;;;;;;;;;27.55;53.84;99416.50;350277;28;1639;-73
2023/08/26 00:18:47;;;;;;;;;;;;;;;27.57;54.13;99417.16;350262;28;1924;-73
2023/08/26 00:18:59;;;;;;;;;;;;;;;27.58;53.74;99418.00;350158;28;1350;-73
2023/08/26 00:19:09;;;;;;;;;;;;;;;27.58;53.65;99415.28;350465;28;968;-73
2023/08/26 00:19:20;;;;;;;;;;;;;;;27.55;53.64;99416.50;348161;28;2516;-73
2023/08/26 00:19:31;;;;;;;;;;;;;;;27.56;53.71;99422.69;345341;28;5201;-73
2023/08/26 00:19:42;;;;;;;;;;;;;;;27.57;53.67;99413.63;349865;28;1160;-73
2023/08/26 00:19:54;;;;;;;;;;;;;;;27.59;53.73;99417.00;350925;28;1441;-73
2023/08/26 00:20:05;;;;;;;;;;;;;;;27.60;53.61;99418.69;350565;28;3167;-73
2023/08/26 00:20:16;;;;;;;;;;;;;;;27.63;53.46;99421.03;349627;28;1074;-73
2023/08/26 00:20:27;;;;;;;;;;;;;;;27.64;53.71;99423.53;347613;28;1335;-72
2023/08/26 00:20:38;;;;;;;;;;;;;;;27.66;53.91;99421.50;346385;28;909;-72
2023/08/26 00:20:48;;;;;;;;;;;;;;;27.65;53.37;99417.13;347781;28;821;-72
2023/08/26 00:20:58;;;;;;;;;;;;;;;27.62;53.77;99422.03;348910;28;891;-72
2023/08/26 00:21:10;;;;;;;;;;;;;;;27.62;54.01;99416.66;348882;28;1331;-72
2023/08/26 00:21:21;;;;;;;;;;;;;;;27.56;53.54;99411.94;349231;28;1465;-72
2023/08/26 00:21:32;;;;;;;;;;;;;;;27.46;53.72;99421.06;349097;28;1203;-72
2023/08/26 00:21:43;;;;;;;;;;;;;;;27.44;54.17;99423.09;348902;28;1214;-73
2023/08/26 00:21:53;;;;;;;;;;;;;;;27.46;54.25;99423.75;350199;28;1585;-73
2023/08/26 00:22:05;;;;;;;;;;;;;;;27.44;54.23;99422.25;350264;28;1844;-73
2023/08/26 00:22:15;;;;;;;;;;;;;;;27.38;54.24;99414.88;349043;28;808;-72
2023/08/26 00:22:25;;;;;;;;;;;;;;;27.36;54.06;99422.28;349133;28;1205;-74
2023/08/26 00:22:36;;;;;;;;;;;;;;;27.35;54.43;99420.59;347711;28;1357;-73
2023/08/26 00:22:46;;;;;;;;;;;;;;;27.33;54.23;99418.09;347704;28;924;-73
2023/08/26 00:22:57;;;;;;;;;;;;;;;27.36;54.56;99416.91;346188;28;808;-72
2023/08/26 00:23:08;;;;;;;;;;;;;;;27.36;54.53;99423.13;344785;28;1255;-72
2023/08/26 00:23:18;;;;;;;;;;;;;;;27.37;54.16;99419.41;345012;28;1186;-72
2023/08/26 00:23:31;;;;;;;;;;;;;;;27.40;54.41;99419.06;343494;28;1240;-72
2023/08/26 00:23:41;;;;;;;;;;;;;;;27.40;54.35;99421.75;342450;28;1466;-72
2023/08/26 00:23:51;;;;;;;;;;;;;;;27.43;54.51;99418.72;346207;28;1331;-72
2023/08/26 00:24:02;;;;;;;;;;;;;;;27.45;53.79;99416.69;347799;28;763;-74
2023/08/26 00:24:12;;;;;;;;;;;;;;;27.45;54.07;99416.69;346670;28;1019;-73
2023/08/26 00:24:23;;;;;;;;;;;;;;;27.43;54.12;99407.97;346700;28;865;-73
2023/08/26 00:24:33;;;;;;;;;;;;;;;27.42;53.94;99413.53;349150;28;824;-73
2023/08/26 00:24:43;;;;;;;;;;;;;;;27.41;54.12;99418.06;347698;28;730;-73
2023/08/26 00:24:53;;;;;;;;;;;;;;;27.38;54.02;99426.47;347599;28;860;-73
2023/08/26 00:25:04;;;;;;;;;;;;;;;27.34;54.33;99419.78;346228;28;1187;-73
2023/08/26 00:25:15;;;;;;;;;;;;;;;27.29;54.29;99418.66;343479;28;1092;-73
2023/08/26 00:25:25;;;;;;;;;;;;;;;27.28;54.54;99411.59;343310;28;1196;-73
2023/08/26 00:25:35;;;;;;;;;;;;;;;27.28;54.56;99417.81;340767;28;1404;-73
2023/08/26 00:25:45;;;;;;;;;;;;;;;27.25;54.70;99420.00;342225;28;1372;-73
2023/08/26 00:25:55;;;;;;;;;;;;;;;27.24;54.75;99424.53;342767;28;1186;-73
2023/08/26 00:26:06;;;;;;;;;;;;;;;27.23;54.59;99409.44;343366;28;1529;-73
2023/08/26 00:26:16;;;;;;;;;;;;;;;27.21;55.09;99419.50;342297;28;872;-73
2023/08/26 00:26:26;;;;;;;;;;;;;;;27.21;54.90;99419.50;341864;28;1261;-73
2023/08/26 00:26:37;;;;;;;;;;;;;;;27.22;54.70;99418.50;342546;28;836;-73
2023/08/26 00:26:48;;;;;;;;;;;;;;;27.24;55.14;99416.47;340978;29;811;-73
2023/08/26 00:26:58;;;;;;;;;;;;;;;27.26;54.77;99417.16;343539;28;872;-73
2023/08/26 00:27:08;;;;;;;;;;;;;;;27.30;54.83;99417.59;339108;29;1844;-73
2023/08/26 00:27:19;;;;;;;;;;;;;;;27.28;54.57;99420.50;340923;29;928;-73
2023/08/26 00:27:29;;;;;;;;;;;;;;;27.25;55.03;99415.47;340572;29;1482;-73
2023/08/26 00:27:39;;;;;;;;;;;;;;;27.24;55.07;99419.16;337049;29;1714;-73
2023/08/26 00:27:49;;;;;;;;;;;;;;;27.26;54.77;99419.00;333154;29;1394;-73
2023/08/26 00:27:59;;;;;;;;;;;;;;;27.26;54.90;99417.16;335317;29;1848;-73
2023/08/26 00:28:10;;;;;;;;;;;;;;;27.27;54.97;99413.44;334054;29;1852;-73
2023/08/26 00:28:20;;;;;;;;;;;;;;;27.30;54.76;99417.59;332900;29;2243;-73
2023/08/26 00:28:30;;;;;;;;;;;;;;;27.31;54.75;99419.28;333195;29;1311;-73
2023/08/26 00:28:40;;;;;;;;;;;;;;;27.24;54.91;99413.78;330404;29;3021;-72
2023/08/26 00:28:50;;;;;;;;;;;;;;;27.22;54.78;99415.81;329435;29;5449;-72
2023/08/26 00:29:01;;;;;;;;;;;;;;;27.24;54.53;99418.31;331812;29;3222;-72
2023/08/26 00:29:11;;;;;;;;;;;;;;;27.26;54.97;99421.69;333271;29;1741;-73
2023/08/26 00:29:21;;;;;;;;;;;;;;;27.25;54.94;99415.47;330543;29;1867;-73
2023/08/26 00:29:32;;;;;;;;;;;;;;;27.25;54.91;99415.47;332058;29;1248;-72
2023/08/26 00:29:42;;;;;;;;;;;;;;;27.26;54.70;99411.78;331800;29;1976;-72
2023/08/26 00:29:52;;;;;;;;;;;;;;;27.30;54.71;99418.44;331516;29;2414;-72
2023/08/26 00:30:03;;;;;;;;;;;;;;;27.31;54.75;99422.81;330790;29;985;-72
2023/08/26 00:30:13;;;;;;;;;;;;;;;27.33;54.56;99417.25;331272;29;2480;-72
2023/08/26 00:30:24;;;;;;;;;;;;;;;27.32;54.94;99416.41;329815;29;2379;-72
2023/08/26 00:30:34;;;;;;;;;;;;;;;27.29;55.20;99421.34;329266;30;1258;-72
2023/08/26 00:30:44;;;;;;;;;;;;;;;27.30;54.78;99417.59;325836;30;2601;-72
2023/08/26 00:30:58;;;;;;;;;;;;;;;27.31;54.86;99419.28;325073;30;1991;-72
2023/08/26 00:31:08;;;;;;;;;;;;;;;27.31;54.89;99420.13;324002;30;1324;-72
2023/08/26 00:31:18;;;;;;;;;;;;;;;27.32;54.86;99418.25;323364;30;1232;-72
2023/08/26 00:31:29;;;;;;;;;;;;;;;27.32;54.94;99418.25;323840;30;2118;-72
2023/08/26 00:31:39;;;;;;;;;;;;;;;27.35;54.89;99416.06;323342;30;2516;-72
2023/08/26 00:31:49;;;;;;;;;;;;;;;27.35;54.97;99413.38;323473;30;1663;-72
2023/08/26 00:31:59;;;;;;;;;;;;;;;27.38;54.54;99414.88;324886;30;2916;-72
2023/08/26 00:32:10;;;;;;;;;;;;;;;27.39;54.74;99417.41;325674;30;3339;-73
2023/08/26 00:32:20;;;;;;;;;;;;;;;27.40;54.94;99423.59;323019;30;2578;-73
2023/08/26 00:32:30;;;;;;;;;;;;;;;27.41;54.86;99418.06;321098;30;805;-73
2023/08/26 00:32:41;;;;;;;;;;;;;;;27.43;54.56;99413.34;320096;30;3190;-73
2023/08/26 00:32:51;;;;;;;;;;;;;;;27.44;54.51;99415.03;317110;31;3510;-73
2023/08/26 00:33:01;;;;;;;;;;;;;;;27.44;54.47;99415.03;317588;31;833;-73
2023/08/26 00:33:11;;;;;;;;;;;;;;;27.44;54.48;99415.03;319091;30;2396;-73
2023/08/26 00:33:22;;;;;;;;;;;;;;;27.45;54.50;99415.88;320086;30;1882;-73
2023/08/26 00:33:32;;;;;;;;;;;;;;;27.46;54.68;99418.38;316483;31;818;-73
2023/08/26 00:33:42;;;;;;;;;;;;;;;27.47;54.43;99414.66;316933;31;2725;-73
2023/08/26 00:33:52;;;;;;;;;;;;;;;27.47;54.45;99411.97;316624;31;3535;-73
2023/08/26 00:34:03;;;;;;;;;;;;;;;27.48;54.20;99420.88;314153;31;1207;-73
2023/08/26 00:34:13;;;;;;;;;;;;;;;27.49;54.26;99412.66;313190;31;4777;-73
2023/08/26 00:34:24;;;;;;;;;;;;;;;27.47;54.44;99409.28;310624;31;4484;-73
2023/08/26 00:34:34;;;;;;;;;;;;;;;27.48;54.52;99410.97;308719;32;867;-73
2023/08/26 00:34:44;;;;;;;;;;;;;;;27.49;54.60;99417.19;308784;31;4276;-73
2023/08/26 00:34:54;;;;;;;;;;;;;;;27.49;54.53;99412.66;307665;31;3862;-73
2023/08/26 00:35:05;;;;;;;;;;;;;;;27.48;54.10;99416.34;309792;31;919;-73
2023/08/26 00:35:15;;;;;;;;;;;;;;;27.45;54.53;99419.38;307598;32;1328;-73
2023/08/26 00:35:25;;;;;;;;;;;;;;;27.45;54.26;99421.25;307384;31;3401;-73
2023/08/26 00:35:38;;;;;;;;;;;;;;;27.43;54.37;99418.72;306603;32;2957;-73
2023/08/26 00:35:49;;;;;;;;;;;;;;;27.43;54.29;99413.34;305898;32;892;-73
2023/08/26 00:35:59;;;;;;;;;;;;;;;27.42;54.04;99417.03;304462;32;4561;-73
2023/08/26 00:36:09;;;;;;;;;;;;;;;27.41;54.41;99420.75;305296;32;5381;-73
2023/08/26 00:36:19;;;;;;;;;;;;;;;27.39;54.02;99417.41;305126;32;1922;-73
2023/08/26 00:36:30;;;;;;;;;;;;;;;27.34;54.35;99414.41;303353;32;5783;-73
2023/08/26 00:36:40;;;;;;;;;;;;;;;27.30;54.56;99412.22;304437;32;6440;-73
2023/08/26 00:36:51;;;;;;;;;;;;;;;27.24;54.28;99419.16;305280;32;6324;-73
2023/08/26 00:37:01;;;;;;;;;;;;;;;27.21;54.68;99414.13;305548;32;860;-73
2023/08/26 00:37:12;;;;;;;;;;;;;;;27.20;54.78;99422.38;304053;32;5265;-73
2023/08/26 00:37:22;;;;;;;;;;;;;;;27.17;54.95;99418.19;303520;32;6209;-73
2023/08/26 00:37:32;;;;;;;;;;;;;;;27.12;54.91;99421.38;304414;32;1046;-73
2023/08/26 00:37:42;;;;;;;;;;;;;;;27.06;54.74;99418.56;301603;32;5018;-73
2023/08/26 00:37:53;;;;;;;;;;;;;;;27.04;55.27;99417.88;296146;32;5318;-73
2023/08/26 00:38:03;;;;;;;;;;;;;;;27.02;55.43;99415.38;293191;33;5236;-73
2023/08/26 00:38:13;;;;;;;;;;;;;;;26.99;55.26;99415.72;291052;33;6254;-74
2023/08/26 00:38:23;;;;;;;;;;;;;;;26.98;55.17;99418.56;290804;33;7045;-73
2023/08/26 00:38:34;;;;;;;;;;;;;;;26.94;55.56;99411.84;290512;33;5645;-73
2023/08/26 00:38:44;;;;;;;;;;;;;;;26.93;55.44;99416.38;288491;33;8290;-73
2023/08/26 00:38:54;;;;;;;;;;;;;;;26.94;55.26;99422.56;286498;34;9338;-73
2023/08/26 00:39:05;;;;;;;;;;;;;;;26.93;55.60;99421.75;286423;34;1184;-73
2023/08/26 00:39:15;;;;;;;;;;;;;;;26.94;55.64;99412.66;283284;34;9256;-73
2023/08/26 00:39:25;;;;;;;;;;;;;;;26.94;55.25;99414.53;283375;34;7390;-73
2023/08/26 00:41:44;;;;;;;;;;;;;;;26.89;55.68;99408.81;2491397;27;19937;-72
2023/08/26 00:41:55;;;;;;;;;;;;;;;26.90;55.62;99415.88;352912;28;1294;-72
2023/08/26 00:42:05;;;;;;;;;;;;;;;26.90;55.48;99413.19;351887;28;1324;-72
2023/08/26 00:42:15;;;;;;;;;;;;;;;26.90;55.26;99421.25;351880;28;725;-72
2023/08/26 00:42:25;;;;;;;;;;;;;;;26.91;55.45;99420.22;351282;28;1347;-72
2023/08/26 00:42:36;;;;;;;;;;;;;;;26.89;55.30;99411.50;350541;28;844;-72
2023/08/26 00:42:46;;;;;;;;;;;;;;;26.90;55.39;99415.88;347721;28;1216;-72
2023/08/26 00:42:56;;;;;;;;;;;;;;;26.92;55.58;99419.22;347647;28;943;-72
2023/08/26 00:43:08;;;;;;;;;;;;;;;26.94;55.56;99418.03;347483;28;1657;-73
2023/08/26 00:43:18;;;;;;;;;;;;;;;26.98;55.33;99419.41;347534;28;1353;-73
2023/08/26 00:43:29;;;;;;;;;;;;;;;26.99;55.35;99414.88;347858;28;1164;-73
2023/08/26 00:43:39;;;;;;;;;;;;;;;27.01;55.37;99416.38;347662;28;892;-73
2023/08/26 00:43:49;;;;;;;;;;;;;;;27.03;55.20;99416.22;347648;28;1403;-73
2023/08/26 00:43:59;;;;;;;;;;;;;;;27.05;55.18;99419.56;346153;28;750;-73
2023/08/26 00:44:10;;;;;;;;;;;;;;;27.06;55.17;99419.38;347392;28;1448;-73
2023/08/26 00:44:20;;;;;;;;;;;;;;;27.07;55.23;99420.22;347781;28;892;-73
2023/08/26 00:44:30;;;;;;;;;;;;;;;27.04;55.06;99417.88;347703;28;1385;-73
2023/08/26 00:44:40;;;;;;;;;;;;;;;27.03;54.87;99417.03;346356;28;817;-73
2023/08/26 00:44:50;;;;;;;;;;;;;;;27.00;54.80;99417.38;346367;28;891;-73
2023/08/26 00:45:01;;;;;;;;;;;;;;;26.99;55.01;99415.72;346379;28;880;-72
2023/08/26 00:45:12;;;;;;;;;;;;;;;26.98;55.02;99415.88;347346;28;920;-72
2023/08/26 00:45:22;;;;;;;;;;;;;;;26.97;55.33;99408.84;346190;28;856;-73
2023/08/26 00:45:33;;;;;;;;;;;;;;;26.97;55.33;99416.91;343707;28;1252;-72
2023/08/26 00:45:43;;;;;;;;;;;;;;;26.95;55.45;99413.50;346230;28;1169;-72
2023/08/26 00:45:53;;;;;;;;;;;;;;;26.97;55.13;99412.34;346380;28;1026;-72
2023/08/26 00:46:03;;;;;;;;;;;;;;;26.99;54.95;99420.25;346440;28;913;-72
2023/08/26 00:46:14;;;;;;;;;;;;;;;27.01;54.98;99413.69;347668;28;1307;-72
2023/08/26 00:46:25;;;;;;;;;;;;;;;27.04;55.02;99410.66;344947;28;1008;-72
2023/08/26 00:46:35;;;;;;;;;;;;;;;27.06;55.00;99414.00;344972;28;836;-72
2023/08/26 00:46:45;;;;;;;;;;;;;;;27.08;54.99;99419.22;344879;28;1271;-72
2023/08/26 00:46:56;;;;;;;;;;;;;;;27.10;54.97;99417.19;344892;28;1236;-72
2023/08/26 00:47:06;;;;;;;;;;;;;;;27.11;54.92;99419.72;344783;28;3510;-72
2023/08/26 00:47:16;;;;;;;;;;;;;;;27.13;55.21;99417.69;343791;28;5697;-72
2023/08/26 00:47:26;;;;;;;;;;;;;;;27.15;54.76;99414.84;344971;28;3130;-72
2023/08/26 00:47:37;;;;;;;;;;;;;;;27.16;55.22;99416.50;346664;28;1182;-72
2023/08/26 00:47:47;;;;;;;;;;;;;;;27.17;54.88;99418.19;343391;28;3448;-72
2023/08/26 00:47:57;;;;;;;;;;;;;;;27.17;54.83;99415.50;342224;28;1414;-72
2023/08/26 00:48:08;;;;;;;;;;;;;;;27.17;54.58;99412.81;342592;28;1371;-73
2023/08/26 00:48:18;;;;;;;;;;;;;;;27.18;54.31;99422.53;340914;28;1233;-73
2023/08/26 00:48:29;;;;;;;;;;;;;;;27.18;54.19;99414.47;342317;28;1235;-73
2023/08/26 00:48:39;;;;;;;;;;;;;;;27.19;54.79;99418.84;343578;28;949;-73
2023/08/26 00:48:49;;;;;;;;;;;;;;;27.20;54.86;99417.84;343620;28;802;-73
2023/08/26 00:49:00;;;;;;;;;;;;;;;27.21;54.85;99413.28;342200;28;1276;-73
2023/08/26 00:49:10;;;;;;;;;;;;;;;27.20;54.55;99409.78;342088;28;1551;-73
2023/08/26 00:49:21;;;;;;;;;;;;;;;27.19;54.37;99416.16;343400;28;1079;-73
2023/08/26 00:49:31;;;;;;;;;;;;;;;27.18;54.75;99414.47;342236;28;1376;-73
2023/08/26 00:49:41;;;;;;;;;;;;;;;27.17;54.81;99415.50;342892;28;1194;-73
2023/08/26 00:49:52;;;;;;;;;;;;;;;27.17;54.67;99412.81;344420;28;1533;-73
2023/08/26 00:50:03;;;;;;;;;;;;;;;27.18;54.70;99417.16;343657;28;1321;-73
2023/08/26 00:50:13;;;;;;;;;;;;;;;27.19;54.33;99418.84;342136;28;1191;-73
2023/08/26 00:50:23;;;;;;;;;;;;;;;27.20;54.60;99415.16;337623;29;1505;-73
2023/08/26 00:50:33;;;;;;;;;;;;;;;27.22;54.66;99421.19;333020;29;1915;-73
2023/08/26 00:50:44;;;;;;;;;;;;;;;27.24;54.52;99421.00;335699;29;858;-73
2023/08/26 00:50:54;;;;;;;;;;;;;;;27.20;54.37;99415.16;335992;29;1599;-73
2023/08/26 00:51:04;;;;;;;;;;;;;;;27.19;54.52;99416.16;337138;29;835;-73
2023/08/26 00:51:14;;;;;;;;;;;;;;;27.17;54.53;99419.03;337007;29;1295;-72
2023/08/26 00:51:25;;;;;;;;;;;;;;;27.18;54.40;99422.53;337416;29;997;-72
2023/08/26 00:51:36;;;;;;;;;;;;;;;27.19;54.65;99415.31;334410;29;1453;-72
2023/08/26 00:51:47;;;;;;;;;;;;;;;27.20;54.46;99417.84;333258;29;818;-72
2023/08/26 00:51:57;;;;;;;;;;;;;;;27.21;54.10;99414.13;331455;29;1707;-72
2023/08/26 00:52:07;;;;;;;;;;;;;;;27.23;54.47;99417.50;331065;29;1939;-72
2023/08/26 00:52:17;;;;;;;;;;;;;;;27.25;54.41;99414.63;330274;29;1434;-72
2023/08/26 00:52:27;;;;;;;;;;;;;;;27.27;54.42;99418.81;329761;29;1995;-74
2023/08/26 00:52:38;;;;;;;;;;;;;;;27.29;54.30;99419.47;329070;29;2116;-73
2023/08/26 00:52:48;;;;;;;;;;;;;;;27.32;54.42;99416.41;325860;30;1210;-73
2023/08/26 00:52:58;;;;;;;;;;;;;;;27.33;54.31;99415.41;329074;30;1557;-73
2023/08/26 00:53:09;;;;;;;;;;;;;;;27.34;54.51;99417.06;331798;29;1189;-73
2023/08/26 00:53:20;;;;;;;;;;;;;;;27.36;54.38;99417.75;330219;29;1266;-73
2023/08/26 00:53:30;;;;;;;;;;;;;;;27.38;54.04;99417.56;325823;30;1560;-73
2023/08/26 00:53:40;;;;;;;;;;;;;;;27.39;54.41;99417.41;329104;29;1890;-73
2023/08/26 00:53:50;;;;;;;;;;;;;;;27.40;54.50;99415.53;329951;29;2612;-72
2023/08/26 00:54:00;;;;;;;;;;;;;;;27.41;54.12;99420.75;332572;29;1590;-72
2023/08/26 00:54:11;;;;;;;;;;;;;;;27.42;54.40;99422.44;331371;29;2516;-72
2023/08/26 00:54:21;;;;;;;;;;;;;;;27.44;54.43;99412.34;331659;29;2489;-72
2023/08/26 00:54:35;;;;;;;;;;;;;;;27.45;54.58;99414.00;331970;29;1205;-72
2023/08/26 00:54:45;;;;;;;;;;;;;;;27.46;54.28;99418.38;327022;30;808;-72
2023/08/26 00:54:56;;;;;;;;;;;;;;;27.47;54.50;99420.06;322470;30;2676;-72
2023/08/26 00:55:06;;;;;;;;;;;;;;;27.47;54.17;99414.66;320411;30;1884;-72
2023/08/26 00:55:16;;;;;;;;;;;;;;;27.47;54.10;99414.66;324610;30;874;-72
2023/08/26 00:55:27;;;;;;;;;;;;;;;27.48;54.09;99413.66;323144;30;1509;-72
2023/08/26 00:55:37;;;;;;;;;;;;;;;27.48;53.97;99416.34;323415;30;2072;-72
2023/08/26 00:55:47;;;;;;;;;;;;;;;27.49;53.96;99417.19;322210;30;1395;-72
2023/08/26 00:55:58;;;;;;;;;;;;;;;27.49;53.98;99418.03;318120;30;2469;-72
2023/08/26 00:56:09;;;;;;;;;;;;;;;27.48;54.06;99416.34;319396;30;2871;-72
2023/08/26 00:56:19;;;;;;;;;;;;;;;27.49;53.94;99414.50;319550;30;3431;-72
2023/08/26 00:56:29;;;;;;;;;;;;;;;27.48;54.22;99418.19;315178;31;5936;-73
2023/08/26 00:56:39;;;;;;;;;;;;;;;27.49;54.25;99420.72;313697;31;3817;-73
2023/08/26 00:56:49;;;;;;;;;;;;;;;27.48;54.22;99415.50;312973;31;3663;-73
2023/08/26 00:57:00;;;;;;;;;;;;;;;27.48;53.80;99416.34;315651;31;5957;-73
2023/08/26 00:57:10;;;;;;;;;;;;;;;27.47;54.14;99417.38;313393;31;3414;-73
2023/08/26 00:57:20;;;;;;;;;;;;;;;27.48;53.56;99424.41;312250;31;2415;-73
2023/08/26 00:57:30;;;;;;;;;;;;;;;27.49;53.92;99417.19;309623;31;1310;-73
2023/08/26 00:57:41;;;;;;;;;;;;;;;27.49;53.90;99420.72;307627;31;2227;-73
2023/08/26 00:57:51;;;;;;;;;;;;;;;27.50;54.27;99416.16;305438;31;3286;-73
2023/08/26 00:58:01;;;;;;;;;;;;;;;27.48;54.01;99419.03;308700;32;844;-73
2023/08/26 00:58:11;;;;;;;;;;;;;;;27.47;53.78;99409.28;306113;31;3379;-73
2023/08/26 00:58:22;;;;;;;;;;;;;;;27.44;53.88;99415.03;305469;32;4037;-73
2023/08/26 00:58:32;;;;;;;;;;;;;;;27.44;54.05;99412.34;305697;32;1566;-73
2023/08/26 00:58:42;;;;;;;;;;;;;;;27.43;53.99;99423.25;305605;32;4305;-73
2023/08/26 00:58:52;;;;;;;;;;;;;;;27.42;53.94;99421.59;305111;32;4574;-73
2023/08/26 00:59:03;;;;;;;;;;;;;;;27.40;54.11;99421.75;306550;32;823;-73
2023/08/26 00:59:13;;;;;;;;;;;;;;;27.36;54.24;99425.81;305907;32;4412;-73
2023/08/26 00:59:23;;;;;;;;;;;;;;;27.32;54.44;99421.78;304715;32;4501;-73
2023/08/26 00:59:33;;;;;;;;;;;;;;;27.30;54.04;99415.75;303936;32;2394;-73
2023/08/26 00:59:44;;;;;;;;;;;;;;;27.26;54.26;99419.00;304478;32;879;-73
2023/08/26 00:59:54;;;;;;;;;;;;;;;27.14;54.29;99419.38;303581;32;3336;-73
2023/08/26 01:00:05;;;;;;;;;;;;;;;27.12;54.18;99416.00;301308;32;4727;-73
2023/08/26 01:00:15;;;;;;;;;;;;;;;27.09;54.44;99415.53;301197;32;1225;-73